Terminal Aerodrome Forecast
Issued by NWS Sioux Falls, SD

Home | Current Version | Previous Version | Text Only | Print | Product List | Glossary On
Versions: 1 2 3 4 5 6 7 8 9 10 11 12 13 14 15 16 17
000
FTUS43 KFSD 080537
TAFFSD
TAF
KFSD 080537Z 0806/0906 26006KT P6SM OVC100
     FM081200 32007KT P6SM OVC020
     FM081400 32007KT P6SM OVC010
     FM082200 30012KT P6SM OVC045
     FM090100 31011G24KT P6SM BKN060=

USA.gov is the U.S. government's official web portal to all federal, state and local government web resources and services.